sensor_id;sensor_type;location;lat;lon;timestamp;temperature;humidity
38020;DHT22;23829;51.350;17.286;2023-02-15T00:01:34;18.70;30.40
38020;DHT22;23829;51.350;17.286;2023-02-15T00:04:02;18.70;30.60
38020;DHT22;23829;51.350;17.286;2023-02-15T00:06:29;18.70;30.40
38020;DHT22;23829;51.350;17.286;2023-02-15T00:08:55;18.70;30.40
38020;DHT22;23829;51.350;17.286;2023-02-15T00:11:22;18.60;30.60
38020;DHT22;23829;51.350;17.286;2023-02-15T00:14:13;18.70;30.50
38020;DHT22;23829;51.350;17.286;2023-02-15T00:16:41;18.70;30.50
38020;DHT22;23829;51.350;17.286;2023-02-15T00:19:08;18.60;30.30
38020;DHT22;23829;51.350;17.286;2023-02-15T00:21:36;18.60;30.60
38020;DHT22;23829;51.350;17.286;2023-02-15T00:24:04;18.60;30.80
38020;DHT22;23829;51.350;17.286;2023-02-15T00:26:32;18.60;30.70
38020;DHT22;23829;51.350;17.286;2023-02-15T00:28:58;18.50;30.60
38020;DHT22;23829;51.350;17.286;2023-02-15T00:31:28;18.50;30.90
38020;DHT22;23829;51.350;17.286;2023-02-15T00:34:04;18.50;30.60
38020;DHT22;23829;51.350;17.286;2023-02-15T00:36:31;18.50;30.30
38020;DHT22;23829;51.350;17.286;2023-02-15T00:38:57;18.60;30.30
38020;DHT22;23829;51.350;17.286;2023-02-15T00:41:24;18.50;30.60
38020;DHT22;23829;51.350;17.286;2023-02-15T00:43:50;18.40;30.80
38020;DHT22;23829;51.350;17.286;2023-02-15T00:46:17;18.40;30.50
38020;DHT22;23829;51.350;17.286;2023-02-15T00:48:44;18.40;30.50
38020;DHT22;23829;51.350;17.286;2023-02-15T00:51:11;18.50;30.50
38020;DHT22;23829;51.350;17.286;2023-02-15T00:53:37;18.40;30.60
38020;DHT22;23829;51.350;17.286;2023-02-15T00:56:04;18.40;30.50
38020;DHT22;23829;51.350;17.286;2023-02-15T00:58:30;18.40;30.50
38020;DHT22;23829;51.350;17.286;2023-02-15T01:01:08;18.40;30.50
38020;DHT22;23829;51.350;17.286;2023-02-15T01:03:34;18.50;30.40
38020;DHT22;23829;51.350;17.286;2023-02-15T01:06:03;18.40;30.60
38020;DHT22;23829;51.350;17.286;2023-02-15T01:08:30;18.40;30.50
38020;DHT22;23829;51.350;17.286;2023-02-15T01:11:02;18.40;30.50
38020;DHT22;23829;51.350;17.286;2023-02-15T01:13:30;18.40;30.30
38020;DHT22;23829;51.350;17.286;2023-02-15T01:15:56;18.50;30.20
38020;DHT22;23829;51.350;17.286;2023-02-15T01:18:22;18.50;30.20
38020;DHT22;23829;51.350;17.286;2023-02-15T01:20:49;18.40;30.30
38020;DHT22;23829;51.350;17.286;2023-02-15T01:23:15;18.40;30.30
38020;DHT22;23829;51.350;17.286;2023-02-15T01:25:42;18.40;30.70
38020;DHT22;23829;51.350;17.286;2023-02-15T01:28:10;18.30;30.50
38020;DHT22;23829;51.350;17.286;2023-02-15T01:30:41;18.40;30.70
38020;DHT22;23829;51.350;17.286;2023-02-15T01:33:10;18.40;30.40
38020;DHT22;23829;51.350;17.286;2023-02-15T01:35:45;18.30;30.50
38020;DHT22;23829;51.350;17.286;2023-02-15T01:38:12;18.40;30.40
38020;DHT22;23829;51.350;17.286;2023-02-15T01:40:39;18.40;30.20
38020;DHT22;23829;51.350;17.286;2023-02-15T01:43:10;18.30;30.50
38020;DHT22;23829;51.350;17.286;2023-02-15T01:45:38;18.20;30.40
38020;DHT22;23829;51.350;17.286;2023-02-15T01:48:21;18.20;30.50
38020;DHT22;23829;51.350;17.286;2023-02-15T01:50:54;18.20;30.50
38020;DHT22;23829;51.350;17.286;2023-02-15T01:56:15;18.40;30.20
38020;DHT22;23829;51.350;17.286;2023-02-15T01:58:45;18.30;30.20
38020;DHT22;23829;51.350;17.286;2023-02-15T02:01:13;18.20;30.40
38020;DHT22;23829;51.350;17.286;2023-02-15T02:06:31;18.20;30.20
38020;DHT22;23829;51.350;17.286;2023-02-15T02:08:58;18.20;30.20
38020;DHT22;23829;51.350;17.286;2023-02-15T02:11:24;18.20;30.30
38020;DHT22;23829;51.350;17.286;2023-02-15T02:13:51;18.20;30.30
38020;DHT22;23829;51.350;17.286;2023-02-15T02:24:45;18.20;30.10
38020;DHT22;23829;51.350;17.286;2023-02-15T02:27:30;18.10;30.20
38020;DHT22;23829;51.350;17.286;2023-02-15T02:33:34;18.10;30.20
38020;DHT22;23829;51.350;17.286;2023-02-15T02:36:37;18.00;30.30
38020;DHT22;23829;51.350;17.286;2023-02-15T02:39:33;17.90;30.40
38020;DHT22;23829;51.350;17.286;2023-02-15T02:42:10;17.80;30.50
38020;DHT22;23829;51.350;17.286;2023-02-15T02:44:46;17.80;31.20
38020;DHT22;23829;51.350;17.286;2023-02-15T02:47:40;17.60;31.20
38020;DHT22;23829;51.350;17.286;2023-02-15T02:50:12;17.60;32.00
38020;DHT22;23829;51.350;17.286;2023-02-15T02:52:51;17.50;32.50
38020;DHT22;23829;51.350;17.286;2023-02-15T03:00:55;17.80;32.30
38020;DHT22;23829;51.350;17.286;2023-02-15T03:03:38;17.80;32.00
38020;DHT22;23829;51.350;17.286;2023-02-15T03:06:12;17.90;31.80
38020;DHT22;23829;51.350;17.286;2023-02-15T03:08:47;17.90;31.80
38020;DHT22;23829;51.350;17.286;2023-02-15T03:11:14;17.90;31.70
38020;DHT22;23829;51.350;17.286;2023-02-15T03:13:41;18.00;31.80
38020;DHT22;23829;51.350;17.286;2023-02-15T03:16:11;18.00;31.50
38020;DHT22;23829;51.350;17.286;2023-02-15T03:18:58;18.00;31.50
38020;DHT22;23829;51.350;17.286;2023-02-15T03:21:55;18.00;31.70
38020;DHT22;23829;51.350;17.286;2023-02-15T03:24:43;18.10;31.60
38020;DHT22;23829;51.350;17.286;2023-02-15T03:27:15;18.20;31.80
38020;DHT22;23829;51.350;17.286;2023-02-15T03:29:52;18.20;31.50
38020;DHT22;23829;51.350;17.286;2023-02-15T03:32:20;18.20;31.30
38020;DHT22;23829;51.350;17.286;2023-02-15T03:34:46;18.20;31.30
38020;DHT22;23829;51.350;17.286;2023-02-15T03:37:26;18.30;31.50
38020;DHT22;23829;51.350;17.286;2023-02-15T03:39:59;18.20;31.30
38020;DHT22;23829;51.350;17.286;2023-02-15T03:42:48;18.20;31.20
38020;DHT22;23829;51.350;17.286;2023-02-15T03:45:19;18.30;31.00
38020;DHT22;23829;51.350;17.286;2023-02-15T03:47:50;18.30;31.00
38020;DHT22;23829;51.350;17.286;2023-02-15T03:50:21;18.20;30.90
38020;DHT22;23829;51.350;17.286;2023-02-15T03:53:10;18.20;31.40
38020;DHT22;23829;51.350;17.286;2023-02-15T03:55:37;18.30;31.20
38020;DHT22;23829;51.350;17.286;2023-02-15T03:58:04;18.20;31.10
38020;DHT22;23829;51.350;17.286;2023-02-15T04:00:58;18.20;30.90
38020;DHT22;23829;51.350;17.286;2023-02-15T04:03:45;18.10;30.40
38020;DHT22;23829;51.350;17.286;2023-02-15T04:06:15;18.10;30.80
38020;DHT22;23829;51.350;17.286;2023-02-15T04:08:42;18.00;31.30
38020;DHT22;23829;51.350;17.286;2023-02-15T04:11:27;18.00;31.20
38020;DHT22;23829;51.350;17.286;2023-02-15T04:13:53;18.00;31.30
38020;DHT22;23829;51.350;17.286;2023-02-15T04:16:23;18.00;31.80
38020;DHT22;23829;51.350;17.286;2023-02-15T04:18:50;17.90;32.10
38020;DHT22;23829;51.350;17.286;2023-02-15T04:21:35;17.90;32.40
38020;DHT22;23829;51.350;17.286;2023-02-15T04:24:20;17.80;32.60
38020;DHT22;23829;51.350;17.286;2023-02-15T04:27:05;18.00;32.30
38020;DHT22;23829;51.350;17.286;2023-02-15T04:29:32;18.00;32.30
38020;DHT22;23829;51.350;17.286;2023-02-15T04:31:59;18.00;32.00
38020;DHT22;23829;51.350;17.286;2023-02-15T04:34:26;18.00;31.80
38020;DHT22;23829;51.350;17.286;2023-02-15T04:36:52;18.00;31.90
38020;DHT22;23829;51.350;17.286;2023-02-15T04:39:19;18.00;31.80
38020;DHT22;23829;51.350;17.286;2023-02-15T04:41:46;17.80;32.20
38020;DHT22;23829;51.350;17.286;2023-02-15T04:44:14;17.50;33.10
38020;DHT22;23829;51.350;17.286;2023-02-15T04:46:40;17.20;33.50
38020;DHT22;23829;51.350;17.286;2023-02-15T04:49:08;17.30;34.20
38020;DHT22;23829;51.350;17.286;2023-02-15T04:51:34;17.30;34.20
38020;DHT22;23829;51.350;17.286;2023-02-15T04:54:01;17.20;34.10
38020;DHT22;23829;51.350;17.286;2023-02-15T04:56:27;17.00;34.60
38020;DHT22;23829;51.350;17.286;2023-02-15T04:58:56;17.10;35.10
38020;DHT22;23829;51.350;17.286;2023-02-15T05:01:22;17.20;34.80
38020;DHT22;23829;51.350;17.286;2023-02-15T05:03:49;17.20;34.80
38020;DHT22;23829;51.350;17.286;2023-02-15T05:06:15;17.00;35.20
38020;DHT22;23829;51.350;17.286;2023-02-15T05:08:41;17.20;35.00
38020;DHT22;23829;51.350;17.286;2023-02-15T05:11:07;17.00;35.10
38020;DHT22;23829;51.350;17.286;2023-02-15T05:13:34;16.80;35.90
38020;DHT22;23829;51.350;17.286;2023-02-15T05:16:00;16.60;36.50
38020;DHT22;23829;51.350;17.286;2023-02-15T05:18:27;16.60;36.50
38020;DHT22;23829;51.350;17.286;2023-02-15T05:20:53;16.90;36.20
38020;DHT22;23829;51.350;17.286;2023-02-15T05:23:20;16.90;36.10
38020;DHT22;23829;51.350;17.286;2023-02-15T05:25:48;17.00;36.20
38020;DHT22;23829;51.350;17.286;2023-02-15T05:28:34;17.00;36.00
38020;DHT22;23829;51.350;17.286;2023-02-15T05:31:07;17.10;35.90
38020;DHT22;23829;51.350;17.286;2023-02-15T05:33:34;16.90;36.30
38020;DHT22;23829;51.350;17.286;2023-02-15T05:36:01;16.80;36.80
38020;DHT22;23829;51.350;17.286;2023-02-15T05:38:28;17.00;36.40
38020;DHT22;23829;51.350;17.286;2023-02-15T05:40:54;17.00;36.60
38020;DHT22;23829;51.350;17.286;2023-02-15T05:43:22;17.10;36.40
38020;DHT22;23829;51.350;17.286;2023-02-15T05:45:50;17.30;36.20
38020;DHT22;23829;51.350;17.286;2023-02-15T05:48:18;17.30;36.10
38020;DHT22;23829;51.350;17.286;2023-02-15T05:50:44;17.20;36.10
38020;DHT22;23829;51.350;17.286;2023-02-15T05:53:11;17.10;36.60
38020;DHT22;23829;51.350;17.286;2023-02-15T05:55:41;17.30;36.30
38020;DHT22;23829;51.350;17.286;2023-02-15T05:58:07;17.00;36.70
38020;DHT22;23829;51.350;17.286;2023-02-15T06:00:34;17.00;36.80
38020;DHT22;23829;51.350;17.286;2023-02-15T06:03:01;16.90;37.20
38020;DHT22;23829;51.350;17.286;2023-02-15T06:05:27;16.70;37.30
38020;DHT22;23829;51.350;17.286;2023-02-15T06:07:54;16.90;37.40
38020;DHT22;23829;51.350;17.286;2023-02-15T06:10:20;16.70;37.60
38020;DHT22;23829;51.350;17.286;2023-02-15T06:12:47;16.80;37.70
38020;DHT22;23829;51.350;17.286;2023-02-15T06:15:13;17.10;37.20
38020;DHT22;23829;51.350;17.286;2023-02-15T06:17:43;16.90;37.20
38020;DHT22;23829;51.350;17.286;2023-02-15T06:20:10;17.20;37.20
38020;DHT22;23829;51.350;17.286;2023-02-15T06:22:36;17.30;36.90
38020;DHT22;23829;51.350;17.286;2023-02-15T06:25:03;17.40;36.60
38020;DHT22;23829;51.350;17.286;2023-02-15T06:27:29;17.40;36.60
38020;DHT22;23829;51.350;17.286;2023-02-15T06:29:56;17.50;36.60
38020;DHT22;23829;51.350;17.286;2023-02-15T06:32:22;17.40;36.60
38020;DHT22;23829;51.350;17.286;2023-02-15T06:34:49;17.20;37.00
38020;DHT22;23829;51.350;17.286;2023-02-15T06:37:15;17.30;37.00
38020;DHT22;23829;51.350;17.286;2023-02-15T06:39:41;17.50;36.90
38020;DHT22;23829;51.350;17.286;2023-02-15T06:42:09;17.50;36.70
38020;DHT22;23829;51.350;17.286;2023-02-15T06:44:35;17.90;36.10
38020;DHT22;23829;51.350;17.286;2023-02-15T06:47:02;18.00;35.80
38020;DHT22;23829;51.350;17.286;2023-02-15T06:49:28;18.00;36.00
38020;DHT22;23829;51.350;17.286;2023-02-15T06:51:54;18.10;35.80
38020;DHT22;23829;51.350;17.286;2023-02-15T06:54:21;18.10;35.70
38020;DHT22;23829;51.350;17.286;2023-02-15T06:56:47;18.10;35.80
38020;DHT22;23829;51.350;17.286;2023-02-15T06:59:14;17.70;36.40
38020;DHT22;23829;51.350;17.286;2023-02-15T07:01:40;17.60;37.40
38020;DHT22;23829;51.350;17.286;2023-02-15T07:04:06;17.70;36.80
38020;DHT22;23829;51.350;17.286;2023-02-15T07:06:33;17.80;36.80
38020;DHT22;23829;51.350;17.286;2023-02-15T07:09:00;17.50;37.20
38020;DHT22;23829;51.350;17.286;2023-02-15T07:11:26;17.60;37.40
38020;DHT22;23829;51.350;17.286;2023-02-15T07:14:11;17.60;37.40
38020;DHT22;23829;51.350;17.286;2023-02-15T07:16:38;17.60;37.30
38020;DHT22;23829;51.350;17.286;2023-02-15T07:19:05;17.50;37.60
38020;DHT22;23829;51.350;17.286;2023-02-15T07:21:31;17.80;37.30
38020;DHT22;23829;51.350;17.286;2023-02-15T07:23:58;17.70;37.40
38020;DHT22;23829;51.350;17.286;2023-02-15T07:26:24;17.50;37.80
38020;DHT22;23829;51.350;17.286;2023-02-15T07:28:51;17.80;37.50
38020;DHT22;23829;51.350;17.286;2023-02-15T07:31:17;17.80;37.50
38020;DHT22;23829;51.350;17.286;2023-02-15T07:33:44;17.70;37.70
38020;DHT22;23829;51.350;17.286;2023-02-15T07:36:11;17.60;37.90
38020;DHT22;23829;51.350;17.286;2023-02-15T07:38:39;17.70;38.10
38020;DHT22;23829;51.350;17.286;2023-02-15T07:41:11;18.00;37.50
38020;DHT22;23829;51.350;17.286;2023-02-15T07:43:39;18.10;37.30
38020;DHT22;23829;51.350;17.286;2023-02-15T07:46:09;18.30;37.00
38020;DHT22;23829;51.350;17.286;2023-02-15T07:48:36;18.30;37.10
38020;DHT22;23829;51.350;17.286;2023-02-15T07:51:05;18.10;37.30
38020;DHT22;23829;51.350;17.286;2023-02-15T07:53:32;18.30;37.20
38020;DHT22;23829;51.350;17.286;2023-02-15T07:56:03;18.50;36.80
38020;DHT22;23829;51.350;17.286;2023-02-15T07:58:30;18.50;36.90
38020;DHT22;23829;51.350;17.286;2023-02-15T08:01:15;18.40;37.10
38020;DHT22;23829;51.350;17.286;2023-02-15T08:03:41;18.20;37.40
38020;DHT22;23829;51.350;17.286;2023-02-15T08:06:08;18.30;37.70
38020;DHT22;23829;51.350;17.286;2023-02-15T08:08:34;18.20;37.90
38020;DHT22;23829;51.350;17.286;2023-02-15T08:11:06;18.20;38.00
38020;DHT22;23829;51.350;17.286;2023-02-15T08:13:53;18.00;38.10
38020;DHT22;23829;51.350;17.286;2023-02-15T08:16:26;18.00;38.50
38020;DHT22;23829;51.350;17.286;2023-02-15T08:18:53;17.80;38.80
38020;DHT22;23829;51.350;17.286;2023-02-15T08:21:21;18.00;38.60
38020;DHT22;23829;51.350;17.286;2023-02-15T08:23:47;17.90;38.80
38020;DHT22;23829;51.350;17.286;2023-02-15T08:26:14;17.90;38.80
38020;DHT22;23829;51.350;17.286;2023-02-15T08:28:41;17.90;38.90
38020;DHT22;23829;51.350;17.286;2023-02-15T08:31:09;17.90;38.80
38020;DHT22;23829;51.350;17.286;2023-02-15T08:33:37;17.70;39.20
38020;DHT22;23829;51.350;17.286;2023-02-15T08:36:06;17.60;39.50
38020;DHT22;23829;51.350;17.286;2023-02-15T08:38:33;17.40;40.20
38020;DHT22;23829;51.350;17.286;2023-02-15T08:41:18;17.60;39.70
38020;DHT22;23829;51.350;17.286;2023-02-15T08:43:49;18.10;39.00
38020;DHT22;23829;51.350;17.286;2023-02-15T08:46:18;17.90;39.00
38020;DHT22;23829;51.350;17.286;2023-02-15T08:48:45;17.90;39.00
38020;DHT22;23829;51.350;17.286;2023-02-15T08:51:14;18.00;38.90
38020;DHT22;23829;51.350;17.286;2023-02-15T08:53:43;18.00;39.00
38020;DHT22;23829;51.350;17.286;2023-02-15T08:56:11;18.30;38.40
38020;DHT22;23829;51.350;17.286;2023-02-15T08:58:38;18.10;38.40
38020;DHT22;23829;51.350;17.286;2023-02-15T09:01:18;18.00;38.60
38020;DHT22;23829;51.350;17.286;2023-02-15T09:03:48;17.90;39.00
38020;DHT22;23829;51.350;17.286;2023-02-15T09:06:16;17.80;39.10
38020;DHT22;23829;51.350;17.286;2023-02-15T09:08:43;17.70;39.30
38020;DHT22;23829;51.350;17.286;2023-02-15T09:11:14;17.40;40.00
38020;DHT22;23829;51.350;17.286;2023-02-15T09:13:42;17.50;39.90
38020;DHT22;23829;51.350;17.286;2023-02-15T09:16:09;17.90;39.50
38020;DHT22;23829;51.350;17.286;2023-02-15T09:18:38;18.20;39.00
38020;DHT22;23829;51.350;17.286;2023-02-15T09:21:25;18.30;38.60
38020;DHT22;23829;51.350;17.286;2023-02-15T09:23:56;18.00;38.90
38020;DHT22;23829;51.350;17.286;2023-02-15T09:26:23;18.20;38.70
38020;DHT22;23829;51.350;17.286;2023-02-15T09:28:56;18.60;38.20
38020;DHT22;23829;51.350;17.286;2023-02-15T09:31:25;18.80;37.40
38020;DHT22;23829;51.350;17.286;2023-02-15T09:33:53;18.80;37.60
38020;DHT22;23829;51.350;17.286;2023-02-15T09:36:31;18.40;38.10
38020;DHT22;23829;51.350;17.286;2023-02-15T09:39:01;19.00;37.60
38020;DHT22;23829;51.350;17.286;2023-02-15T09:58:13;18.50;38.40
38020;DHT22;23829;51.350;17.286;2023-02-15T10:00:47;18.40;38.40
38020;DHT22;23829;51.350;17.286;2023-02-15T10:03:35;18.60;38.50
38020;DHT22;23829;51.350;17.286;2023-02-15T10:06:22;18.50;38.10
38020;DHT22;23829;51.350;17.286;2023-02-15T10:15:44;18.80;38.00
38020;DHT22;23829;51.350;17.286;2023-02-15T10:18:42;19.20;37.40
38020;DHT22;23829;51.350;17.286;2023-02-15T10:27:13;18.80;37.90
38020;DHT22;23829;51.350;17.286;2023-02-15T10:29:48;19.00;37.90
38020;DHT22;23829;51.350;17.286;2023-02-15T10:32:27;19.50;37.30
38020;DHT22;23829;51.350;17.286;2023-02-15T10:35:44;19.50;37.10
38020;DHT22;23829;51.350;17.286;2023-02-15T10:38:18;19.40;37.10
38020;DHT22;23829;51.350;17.286;2023-02-15T10:57:52;19.70;37.30
38020;DHT22;23829;51.350;17.286;2023-02-15T11:06:35;19.90;37.00
38020;DHT22;23829;51.350;17.286;2023-02-15T11:09:12;20.00;36.70
38020;DHT22;23829;51.350;17.286;2023-02-15T11:11:40;20.30;36.40
38020;DHT22;23829;51.350;17.286;2023-02-15T11:14:35;20.60;35.70
38020;DHT22;23829;51.350;17.286;2023-02-15T11:17:12;20.50;35.70
38020;DHT22;23829;51.350;17.286;2023-02-15T11:19:55;20.40;35.70
38020;DHT22;23829;51.350;17.286;2023-02-15T11:22:23;20.30;35.80
38020;DHT22;23829;51.350;17.286;2023-02-15T11:24:50;20.40;36.00
38020;DHT22;23829;51.350;17.286;2023-02-15T11:27:35;20.60;35.60
38020;DHT22;23829;51.350;17.286;2023-02-15T11:30:05;20.30;35.90
38020;DHT22;23829;51.350;17.286;2023-02-15T11:32:42;20.40;36.10
38020;DHT22;23829;51.350;17.286;2023-02-15T11:40:27;20.70;35.50
38020;DHT22;23829;51.350;17.286;2023-02-15T11:43:53;20.70;35.30
38020;DHT22;23829;51.350;17.286;2023-02-15T11:45:52;20.70;35.40
38020;DHT22;23829;51.350;17.286;2023-02-15T11:48:20;21.10;34.90
38020;DHT22;23829;51.350;17.286;2023-02-15T11:50:47;20.90;34.80
38020;DHT22;23829;51.350;17.286;2023-02-15T11:53:19;20.60;35.50
38020;DHT22;23829;51.350;17.286;2023-02-15T11:55:48;20.90;35.20
38020;DHT22;23829;51.350;17.286;2023-02-15T11:58:35;21.10;35.10
38020;DHT22;23829;51.350;17.286;2023-02-15T12:01:15;21.50;34.20
38020;DHT22;23829;51.350;17.286;2023-02-15T12:03:49;21.20;34.40
38020;DHT22;23829;51.350;17.286;2023-02-15T12:06:29;21.00;35.60
38020;DHT22;23829;51.350;17.286;2023-02-15T12:09:20;21.00;35.20
38020;DHT22;23829;51.350;17.286;2023-02-15T12:11:50;20.90;35.10
38020;DHT22;23829;51.350;17.286;2023-02-15T12:14:16;20.90;35.10
38020;DHT22;23829;51.350;17.286;2023-02-15T12:16:51;21.00;35.10
38020;DHT22;23829;51.350;17.286;2023-02-15T12:19:30;21.10;34.90
38020;DHT22;23829;51.350;17.286;2023-02-15T12:21:58;21.30;34.40
38020;DHT22;23829;51.350;17.286;2023-02-15T12:24:29;21.10;34.90
38020;DHT22;23829;51.350;17.286;2023-02-15T12:27:14;21.30;33.90
38020;DHT22;23829;51.350;17.286;2023-02-15T12:29:51;21.50;33.90
38020;DHT22;23829;51.350;17.286;2023-02-15T12:32:36;21.80;33.40
38020;DHT22;23829;51.350;17.286;2023-02-15T12:35:16;22.20;33.00
38020;DHT22;23829;51.350;17.286;2023-02-15T12:40:37;21.40;34.00
38020;DHT22;23829;51.350;17.286;2023-02-15T12:43:29;21.20;34.30
38020;DHT22;23829;51.350;17.286;2023-02-15T12:46:34;21.00;34.80
38020;DHT22;23829;51.350;17.286;2023-02-15T12:49:19;21.00;34.80
38020;DHT22;23829;51.350;17.286;2023-02-15T12:52:01;21.10;34.70
38020;DHT22;23829;51.350;17.286;2023-02-15T12:54:31;20.90;34.90
38020;DHT22;23829;51.350;17.286;2023-02-15T12:57:02;21.20;34.60
38020;DHT22;23829;51.350;17.286;2023-02-15T12:59:48;21.20;34.40
38020;DHT22;23829;51.350;17.286;2023-02-15T13:02:26;21.70;33.80
38020;DHT22;23829;51.350;17.286;2023-02-15T13:04:55;22.10;33.30
38020;DHT22;23829;51.350;17.286;2023-02-15T13:07:23;22.00;33.10
38020;DHT22;23829;51.350;17.286;2023-02-15T13:09:50;22.00;33.20
38020;DHT22;23829;51.350;17.286;2023-02-15T13:12:27;22.20;32.70
38020;DHT22;23829;51.350;17.286;2023-02-15T13:14:57;22.50;32.10
38020;DHT22;23829;51.350;17.286;2023-02-15T13:17:34;22.80;31.70
38020;DHT22;23829;51.350;17.286;2023-02-15T13:20:04;22.70;31.80
38020;DHT22;23829;51.350;17.286;2023-02-15T13:22:38;22.30;32.30
38020;DHT22;23829;51.350;17.286;2023-02-15T13:25:23;22.40;32.20
38020;DHT22;23829;51.350;17.286;2023-02-15T13:27:54;22.40;32.20
38020;DHT22;23829;51.350;17.286;2023-02-15T13:30:27;22.30;32.30
38020;DHT22;23829;51.350;17.286;2023-02-15T13:33:05;22.30;32.40
38020;DHT22;23829;51.350;17.286;2023-02-15T13:36:00;22.20;32.60
38020;DHT22;23829;51.350;17.286;2023-02-15T13:41:33;22.30;32.50
38020;DHT22;23829;51.350;17.286;2023-02-15T13:44:03;22.10;32.60
38020;DHT22;23829;51.350;17.286;2023-02-15T13:46:48;21.90;32.70
38020;DHT22;23829;51.350;17.286;2023-02-15T13:55:15;22.20;32.40
38020;DHT22;23829;51.350;17.286;2023-02-15T13:58:16;22.30;32.20
38020;DHT22;23829;51.350;17.286;2023-02-15T14:01:22;22.60;31.80
38020;DHT22;23829;51.350;17.286;2023-02-15T14:07:25;22.20;32.00
38020;DHT22;23829;51.350;17.286;2023-02-15T14:10:23;22.00;32.30
38020;DHT22;23829;51.350;17.286;2023-02-15T14:16:05;22.10;32.20
38020;DHT22;23829;51.350;17.286;2023-02-15T14:18:51;22.20;31.90
38020;DHT22;23829;51.350;17.286;2023-02-15T14:21:32;22.20;31.70
38020;DHT22;23829;51.350;17.286;2023-02-15T14:31:59;21.90;32.00
38020;DHT22;23829;51.350;17.286;2023-02-15T14:36:56;22.30;31.60
38020;DHT22;23829;51.350;17.286;2023-02-15T14:45:42;22.00;32.00
38020;DHT22;23829;51.350;17.286;2023-02-15T14:48:14;21.90;32.30
38020;DHT22;23829;51.350;17.286;2023-02-15T14:50:47;22.20;31.80
38020;DHT22;23829;51.350;17.286;2023-02-15T14:53:24;22.30;31.60
38020;DHT22;23829;51.350;17.286;2023-02-15T14:56:19;22.30;31.60
38020;DHT22;23829;51.350;17.286;2023-02-15T15:01:16;21.80;32.00
38020;DHT22;23829;51.350;17.286;2023-02-15T15:03:53;21.60;32.30
38020;DHT22;23829;51.350;17.286;2023-02-15T15:06:26;21.70;32.50
38020;DHT22;23829;51.350;17.286;2023-02-15T15:09:00;21.80;32.20
38020;DHT22;23829;51.350;17.286;2023-02-15T15:13:58;21.60;32.60
38020;DHT22;23829;51.350;17.286;2023-02-15T15:16:35;22.00;32.10
38020;DHT22;23829;51.350;17.286;2023-02-15T15:22:21;22.40;31.60
38020;DHT22;23829;51.350;17.286;2023-02-15T15:24:53;22.50;31.30
38020;DHT22;23829;51.350;17.286;2023-02-15T15:27:47;22.60;31.10
38020;DHT22;23829;51.350;17.286;2023-02-15T15:35:36;22.90;30.70
38020;DHT22;23829;51.350;17.286;2023-02-15T15:49:18;23.00;30.40
38020;DHT22;23829;51.350;17.286;2023-02-15T15:51:45;22.90;30.40
38020;DHT22;23829;51.350;17.286;2023-02-15T15:54:22;23.00;30.40
38020;DHT22;23829;51.350;17.286;2023-02-15T15:56:58;22.90;30.30
38020;DHT22;23829;51.350;17.286;2023-02-15T15:59:29;23.00;30.10
38020;DHT22;23829;51.350;17.286;2023-02-15T16:02:04;22.90;30.10
38020;DHT22;23829;51.350;17.286;2023-02-15T16:04:33;23.00;30.00
38020;DHT22;23829;51.350;17.286;2023-02-15T16:09:58;22.90;30.50
38020;DHT22;23829;51.350;17.286;2023-02-15T16:12:30;22.80;30.10
38020;DHT22;23829;51.350;17.286;2023-02-15T16:14:58;22.70;30.20
38020;DHT22;23829;51.350;17.286;2023-02-15T16:17:29;22.70;30.10
38020;DHT22;23829;51.350;17.286;2023-02-15T16:20:17;22.60;30.00
38020;DHT22;23829;51.350;17.286;2023-02-15T16:22:46;22.50;30.10
38020;DHT22;23829;51.350;17.286;2023-02-15T16:27:50;22.30;29.90
38020;DHT22;23829;51.350;17.286;2023-02-15T16:30:32;22.30;30.00
38020;DHT22;23829;51.350;17.286;2023-02-15T16:35:39;22.20;30.00
38020;DHT22;23829;51.350;17.286;2023-02-15T16:38:09;22.10;30.00
38020;DHT22;23829;51.350;17.286;2023-02-15T16:40:52;22.00;30.00
38020;DHT22;23829;51.350;17.286;2023-02-15T16:43:26;21.90;30.00
38020;DHT22;23829;51.350;17.286;2023-02-15T16:46:04;21.80;30.00
38020;DHT22;23829;51.350;17.286;2023-02-15T16:48:32;21.70;30.10
38020;DHT22;23829;51.350;17.286;2023-02-15T16:51:00;21.70;30.20
38020;DHT22;23829;51.350;17.286;2023-02-15T16:53:28;21.70;30.30
38020;DHT22;23829;51.350;17.286;2023-02-15T16:56:00;21.70;30.40
38020;DHT22;23829;51.350;17.286;2023-02-15T16:58:40;21.60;30.30
38020;DHT22;23829;51.350;17.286;2023-02-15T17:01:10;21.50;30.40
38020;DHT22;23829;51.350;17.286;2023-02-15T17:03:37;21.40;30.50
38020;DHT22;23829;51.350;17.286;2023-02-15T17:06:26;21.40;30.40
38020;DHT22;23829;51.350;17.286;2023-02-15T17:09:03;21.30;30.30
38020;DHT22;23829;51.350;17.286;2023-02-15T17:11:43;21.20;30.30
38020;DHT22;23829;51.350;17.286;2023-02-15T17:14:12;21.10;30.60
38020;DHT22;23829;51.350;17.286;2023-02-15T17:16:53;21.00;30.50
38020;DHT22;23829;51.350;17.286;2023-02-15T17:19:40;20.90;31.00
38020;DHT22;23829;51.350;17.286;2023-02-15T17:22:20;20.90;31.00
38020;DHT22;23829;51.350;17.286;2023-02-15T17:24:50;20.80;31.10
38020;DHT22;23829;51.350;17.286;2023-02-15T17:27:29;20.70;31.70
38020;DHT22;23829;51.350;17.286;2023-02-15T17:30:12;20.60;31.60
38020;DHT22;23829;51.350;17.286;2023-02-15T17:33:02;20.60;31.80
38020;DHT22;23829;51.350;17.286;2023-02-15T17:35:31;20.40;32.20
38020;DHT22;23829;51.350;17.286;2023-02-15T17:38:21;20.30;32.20
38020;DHT22;23829;51.350;17.286;2023-02-15T17:40:47;20.10;32.60
38020;DHT22;23829;51.350;17.286;2023-02-15T17:43:13;20.10;33.10
38020;DHT22;23829;51.350;17.286;2023-02-15T17:45:48;20.10;33.30
38020;DHT22;23829;51.350;17.286;2023-02-15T17:48:33;20.20;33.30
38020;DHT22;23829;51.350;17.286;2023-02-15T17:51:05;20.20;33.30
38020;DHT22;23829;51.350;17.286;2023-02-15T17:53:33;20.20;33.50
38020;DHT22;23829;51.350;17.286;2023-02-15T17:55:59;19.90;33.60
38020;DHT22;23829;51.350;17.286;2023-02-15T17:58:27;19.90;33.80
38020;DHT22;23829;51.350;17.286;2023-02-15T18:00:57;19.70;34.50
38020;DHT22;23829;51.350;17.286;2023-02-15T18:03:46;19.70;34.60
38020;DHT22;23829;51.350;17.286;2023-02-15T18:06:33;19.50;35.10
38020;DHT22;23829;51.350;17.286;2023-02-15T18:09:20;19.40;35.70
38020;DHT22;23829;51.350;17.286;2023-02-15T18:12:23;19.50;35.60
38020;DHT22;23829;51.350;17.286;2023-02-15T18:14:50;19.60;35.50
38020;DHT22;23829;51.350;17.286;2023-02-15T18:17:24;19.60;35.60
38020;DHT22;23829;51.350;17.286;2023-02-15T18:19:52;19.60;35.80